sensor_id;sensor_type;location;lat;lon;timestamp;pressure;altitude;pressure_sealevel;temperature;humidity
4199;BME280;2113;50.946;14.610;2024-03-02T00:00:29;96057.09;;;7.82;94.86
4199;BME280;2113;50.946;14.610;2024-03-02T00:02:59;96054.69;;;7.80;95.07
4199;BME280;2113;50.946;14.610;2024-03-02T00:05:27;96055.50;;;7.74;95.18
4199;BME280;2113;50.946;14.610;2024-03-02T00:07:57;96049.03;;;7.77;95.70
4199;BME280;2113;50.946;14.610;2024-03-02T00:10:30;96049.84;;;7.70;95.39
4199;BME280;2113;50.946;14.610;2024-03-02T00:13:03;96049.44;;;7.74;96.01
4199;BME280;2113;50.946;14.610;2024-03-02T00:15:41;96045.41;;;7.64;96.54
4199;BME280;2113;50.946;14.610;2024-03-02T00:18:12;96045.41;;;7.64;96.66
4199;BME280;2113;50.946;14.610;2024-03-02T00:20:41;96051.06;;;7.61;97.35
4199;BME280;2113;50.946;14.610;2024-03-02T00:23:10;96058.31;;;7.66;97.44
4199;BME280;2113;50.946;14.610;2024-03-02T00:25:43;96049.44;;;7.60;97.24
4199;BME280;2113;50.946;14.610;2024-03-02T00:28:17;96054.69;;;7.60;97.32
4199;BME280;2113;50.946;14.610;2024-03-02T00:30:54;96049.66;;;7.59;97.41
4199;BME280;2113;50.946;14.610;2024-03-02T00:33:27;96057.53;;;7.59;98.09
4199;BME280;2113;50.946;14.610;2024-03-02T00:35:56;96045.03;;;7.54;98.17
4199;BME280;2113;50.946;14.610;2024-03-02T00:38:24;96043.22;;;7.61;98.25
4199;BME280;2113;50.946;14.610;2024-03-02T00:40:53;96043.38;;;7.60;98.16
4199;BME280;2113;50.946;14.610;2024-03-02T00:43:42;96038.56;;;7.50;98.62
4199;BME280;2113;50.946;14.610;2024-03-02T00:46:16;96047.66;;;7.48;99.02
4199;BME280;2113;50.946;14.610;2024-03-02T00:48:53;96044.41;;;7.52;99.56
4199;BME280;2113;50.946;14.610;2024-03-02T00:51:23;96045.41;;;7.44;99.50
4199;BME280;2113;50.946;14.610;2024-03-02T00:53:52;96040.97;;;7.45;99.79
4199;BME280;2113;50.946;14.610;2024-03-02T00:56:23;96044.41;;;7.39;100.00
4199;BME280;2113;50.946;14.610;2024-03-02T00:58:52;96048.66;;;7.40;100.00
4199;BME280;2113;50.946;14.610;2024-03-02T01:01:20;96041.38;;;7.42;100.00
4199;BME280;2113;50.946;14.610;2024-03-02T01:03:49;96047.81;;;7.39;100.00
4199;BME280;2113;50.946;14.610;2024-03-02T01:06:19;96048.84;;;7.32;100.00
4199;BME280;2113;50.946;14.610;2024-03-02T01:08:49;96045.81;;;7.35;100.00
4199;BME280;2113;50.946;14.610;2024-03-02T01:11:19;96041.38;;;7.35;100.00
4199;BME280;2113;50.946;14.610;2024-03-02T01:13:50;96038.56;;;7.37;100.00
4199;BME280;2113;50.946;14.610;2024-03-02T01:16:19;96045.19;;;7.33;100.00
4199;BME280;2113;50.946;14.610;2024-03-02T01:18:47;96041.38;;;7.29;100.00
4199;BME280;2113;50.946;14.610;2024-03-02T01:21:16;62388.41;;;-142.69;100.00
4199;BME280;2113;50.946;14.610;2024-03-02T01:23:47;62388.41;;;-142.69;100.00
4199;BME280;2113;50.946;14.610;2024-03-02T01:26:15;62388.41;;;-142.69;100.00
4199;BME280;2113;50.946;14.610;2024-03-02T01:28:43;62388.41;;;-142.69;100.00
4199;BME280;2113;50.946;14.610;2024-03-02T01:31:12;62388.41;;;-142.69;100.00
4199;BME280;2113;50.946;14.610;2024-03-02T01:33:40;62388.41;;;-142.69;nan
4199;BME280;2113;50.946;14.610;2024-03-02T01:36:08;62388.41;;;-142.69;100.00
4199;BME280;2113;50.946;14.610;2024-03-02T01:38:36;62388.41;;;-142.69;100.00
4199;BME280;2113;50.946;14.610;2024-03-02T01:41:06;62388.41;;;-142.69;100.00
4199;BME280;2113;50.946;14.610;2024-03-02T01:43:34;62388.41;;;-142.69;100.00
4199;BME280;2113;50.946;14.610;2024-03-02T01:46:07;62388.41;;;-142.69;100.00
4199;BME280;2113;50.946;14.610;2024-03-02T01:48:36;62388.41;;;-142.69;100.00
4199;BME280;2113;50.946;14.610;2024-03-02T01:51:04;62388.41;;;-142.69;100.00
4199;BME280;2113;50.946;14.610;2024-03-02T01:53:33;62388.41;;;-142.69;100.00
4199;BME280;2113;50.946;14.610;2024-03-02T01:56:02;62388.41;;;-142.69;100.00
4199;BME280;2113;50.946;14.610;2024-03-02T01:58:32;62388.41;;;-142.69;100.00
4199;BME280;2113;50.946;14.610;2024-03-02T02:01:00;62388.41;;;-142.69;100.00
4199;BME280;2113;50.946;14.610;2024-03-02T02:03:28;62388.41;;;-142.69;100.00
4199;BME280;2113;50.946;14.610;2024-03-02T02:05:56;62388.41;;;-142.69;100.00
4199;BME280;2113;50.946;14.610;2024-03-02T02:08:24;62388.41;;;-142.69;100.00
4199;BME280;2113;50.946;14.610;2024-03-02T02:10:52;62388.41;;;-142.69;100.00
4199;BME280;2113;50.946;14.610;2024-03-02T02:13:21;62388.41;;;-142.69;100.00
4199;BME280;2113;50.946;14.610;2024-03-02T02:15:50;62388.41;;;-142.69;100.00
4199;BME280;2113;50.946;14.610;2024-03-02T02:18:20;62388.41;;;-142.69;0.00
4199;BME280;2113;50.946;14.610;2024-03-02T02:20:48;62388.41;;;-142.69;100.00
4199;BME280;2113;50.946;14.610;2024-03-02T02:23:17;62388.41;;;-142.69;100.00
4199;BME280;2113;50.946;14.610;2024-03-02T02:25:46;62388.41;;;-142.69;100.00
4199;BME280;2113;50.946;14.610;2024-03-02T02:28:14;62388.41;;;-142.69;100.00
4199;BME280;2113;50.946;14.610;2024-03-02T02:30:42;62388.41;;;-142.69;100.00
4199;BME280;2113;50.946;14.610;2024-03-02T02:33:10;62388.41;;;-142.69;100.00
4199;BME280;2113;50.946;14.610;2024-03-02T02:35:39;62388.41;;;-142.69;100.00
4199;BME280;2113;50.946;14.610;2024-03-02T02:38:07;62388.41;;;-142.69;100.00
4199;BME280;2113;50.946;14.610;2024-03-02T02:40:36;62388.41;;;-142.69;100.00
4199;BME280;2113;50.946;14.610;2024-03-02T02:43:04;62388.41;;;-142.69;100.00
4199;BME280;2113;50.946;14.610;2024-03-02T02:45:33;62388.41;;;-142.69;100.00
4199;BME280;2113;50.946;14.610;2024-03-02T02:48:02;62388.41;;;-142.69;100.00
4199;BME280;2113;50.946;14.610;2024-03-02T02:50:30;62388.41;;;-142.69;100.00
4199;BME280;2113;50.946;14.610;2024-03-02T02:52:58;62388.41;;;-142.69;100.00
4199;BME280;2113;50.946;14.610;2024-03-02T02:55:26;62388.41;;;-142.69;100.00
4199;BME280;2113;50.946;14.610;2024-03-02T02:57:56;62388.41;;;-142.69;100.00
4199;BME280;2113;50.946;14.610;2024-03-02T03:00:24;62388.41;;;-142.69;100.00
4199;BME280;2113;50.946;14.610;2024-03-02T03:02:52;62388.41;;;-142.69;100.00
4199;BME280;2113;50.946;14.610;2024-03-02T03:05:20;62388.41;;;-142.69;100.00
4199;BME280;2113;50.946;14.610;2024-03-02T03:07:49;62388.41;;;-142.69;100.00
4199;BME280;2113;50.946;14.610;2024-03-02T03:10:17;62388.41;;;-142.69;100.00
4199;BME280;2113;50.946;14.610;2024-03-02T03:12:49;62388.41;;;-142.69;100.00
4199;BME280;2113;50.946;14.610;2024-03-02T03:15:18;62388.41;;;-142.69;100.00
4199;BME280;2113;50.946;14.610;2024-03-02T03:17:46;62388.41;;;-142.69;100.00
4199;BME280;2113;50.946;14.610;2024-03-02T03:20:15;62388.41;;;-142.69;100.00
4199;BME280;2113;50.946;14.610;2024-03-02T03:22:43;62388.41;;;-142.69;100.00
4199;BME280;2113;50.946;14.610;2024-03-02T03:25:11;62388.41;;;-142.69;100.00
4199;BME280;2113;50.946;14.610;2024-03-02T03:27:39;62388.41;;;-142.69;100.00
4199;BME280;2113;50.946;14.610;2024-03-02T03:30:09;62388.41;;;-142.69;100.00
4199;BME280;2113;50.946;14.610;2024-03-02T03:32:39;62388.41;;;-142.69;100.00
4199;BME280;2113;50.946;14.610;2024-03-02T03:35:08;62388.41;;;-142.69;100.00
4199;BME280;2113;50.946;14.610;2024-03-02T03:37:37;62388.41;;;-142.69;100.00
4199;BME280;2113;50.946;14.610;2024-03-02T03:40:06;62388.41;;;-142.69;100.00
4199;BME280;2113;50.946;14.610;2024-03-02T03:42:37;62388.41;;;-142.69;100.00
4199;BME280;2113;50.946;14.610;2024-03-02T03:45:07;62388.41;;;-142.69;100.00
4199;BME280;2113;50.946;14.610;2024-03-02T03:47:35;62388.41;;;-142.69;100.00
4199;BME280;2113;50.946;14.610;2024-03-02T03:50:06;62388.41;;;-142.69;100.00
4199;BME280;2113;50.946;14.610;2024-03-02T03:52:35;62388.41;;;-142.69;100.00
4199;BME280;2113;50.946;14.610;2024-03-02T03:55:03;62388.41;;;-142.69;100.00
4199;BME280;2113;50.946;14.610;2024-03-02T03:57:32;62388.41;;;-142.69;100.00
4199;BME280;2113;50.946;14.610;2024-03-02T04:00:02;62388.41;;;-142.69;100.00
4199;BME280;2113;50.946;14.610;2024-03-02T04:02:40;62388.41;;;-142.69;100.00
4199;BME280;2113;50.946;14.610;2024-03-02T04:05:10;62388.41;;;-142.69;100.00
4199;BME280;2113;50.946;14.610;2024-03-02T04:07:38;62388.41;;;-142.69;100.00
4199;BME280;2113;50.946;14.610;2024-03-02T04:10:08;62388.41;;;-142.69;100.00
4199;BME280;2113;50.946;14.610;2024-03-02T04:12:37;62388.41;;;-142.69;100.00
4199;BME280;2113;50.946;14.610;2024-03-02T04:15:05;62388.41;;;-142.69;100.00
4199;BME280;2113;50.946;14.610;2024-03-02T04:17:34;62388.41;;;-142.69;100.00
4199;BME280;2113;50.946;14.610;2024-03-02T04:20:03;62388.41;;;-142.69;100.00
4199;BME280;2113;50.946;14.610;2024-03-02T04:22:34;62388.41;;;-142.69;100.00
4199;BME280;2113;50.946;14.610;2024-03-02T04:25:03;62388.41;;;-142.69;100.00
4199;BME280;2113;50.946;14.610;2024-03-02T04:27:34;62388.41;;;-142.69;100.00
4199;BME280;2113;50.946;14.610;2024-03-02T04:30:04;62388.41;;;-142.69;100.00
4199;BME280;2113;50.946;14.610;2024-03-02T04:32:33;62388.41;;;-142.69;100.00
4199;BME280;2113;50.946;14.610;2024-03-02T04:35:03;62388.41;;;-142.69;100.00
4199;BME280;2113;50.946;14.610;2024-03-02T04:37:34;62388.41;;;-142.69;100.00
4199;BME280;2113;50.946;14.610;2024-03-02T04:40:03;62388.41;;;-142.69;100.00
4199;BME280;2113;50.946;14.610;2024-03-02T04:42:34;62388.41;;;-142.69;100.00
4199;BME280;2113;50.946;14.610;2024-03-02T04:45:04;62388.41;;;-142.69;100.00
4199;BME280;2113;50.946;14.610;2024-03-02T04:47:34;62388.41;;;-142.69;100.00
4199;BME280;2113;50.946;14.610;2024-03-02T04:50:02;62388.41;;;-142.69;100.00
4199;BME280;2113;50.946;14.610;2024-03-02T04:52:30;62388.41;;;-142.69;100.00
4199;BME280;2113;50.946;14.610;2024-03-02T04:55:00;62388.41;;;-142.69;100.00
4199;BME280;2113;50.946;14.610;2024-03-02T04:57:46;62388.41;;;-142.69;100.00
4199;BME280;2113;50.946;14.610;2024-03-02T05:00:15;62388.41;;;-142.69;100.00
4199;BME280;2113;50.946;14.610;2024-03-02T05:02:43;62388.41;;;-142.69;100.00
4199;BME280;2113;50.946;14.610;2024-03-02T05:05:11;62388.41;;;-142.69;100.00
4199;BME280;2113;50.946;14.610;2024-03-02T05:07:42;62388.41;;;-142.69;100.00
4199;BME280;2113;50.946;14.610;2024-03-02T05:10:12;62388.41;;;-142.69;100.00
4199;BME280;2113;50.946;14.610;2024-03-02T05:12:41;62388.41;;;-142.69;100.00
4199;BME280;2113;50.946;14.610;2024-03-02T05:15:24;62388.41;;;-142.69;100.00
4199;BME280;2113;50.946;14.610;2024-03-02T05:17:52;62388.41;;;-142.69;100.00
4199;BME280;2113;50.946;14.610;2024-03-02T05:20:20;62388.41;;;-142.69;100.00
4199;BME280;2113;50.946;14.610;2024-03-02T05:22:48;62388.41;;;-142.69;100.00
4199;BME280;2113;50.946;14.610;2024-03-02T05:25:18;62388.41;;;-142.69;100.00
4199;BME280;2113;50.946;14.610;2024-03-02T05:27:46;62388.41;;;-142.69;100.00
4199;BME280;2113;50.946;14.610;2024-03-02T05:30:14;62388.41;;;-142.69;100.00
4199;BME280;2113;50.946;14.610;2024-03-02T05:32:42;62388.41;;;-142.69;100.00
4199;BME280;2113;50.946;14.610;2024-03-02T05:35:10;62388.41;;;-142.69;100.00
4199;BME280;2113;50.946;14.610;2024-03-02T05:37:40;62388.41;;;-142.69;100.00
4199;BME280;2113;50.946;14.610;2024-03-02T05:40:08;62388.41;;;-142.69;100.00
4199;BME280;2113;50.946;14.610;2024-03-02T05:42:39;62388.41;;;-142.69;100.00
4199;BME280;2113;50.946;14.610;2024-03-02T05:45:08;62388.41;;;-142.69;100.00
4199;BME280;2113;50.946;14.610;2024-03-02T05:47:36;62388.41;;;-142.69;100.00
4199;BME280;2113;50.946;14.610;2024-03-02T05:50:06;62388.41;;;-142.69;100.00
4199;BME280;2113;50.946;14.610;2024-03-02T05:52:34;62388.41;;;-142.69;100.00
4199;BME280;2113;50.946;14.610;2024-03-02T05:55:03;62388.41;;;-142.69;100.00
4199;BME280;2113;50.946;14.610;2024-03-02T05:57:32;62388.41;;;-142.69;100.00
4199;BME280;2113;50.946;14.610;2024-03-02T06:00:16;62388.41;;;-142.69;100.00
4199;BME280;2113;50.946;14.610;2024-03-02T06:02:45;62388.41;;;-142.69;100.00
4199;BME280;2113;50.946;14.610;2024-03-02T06:05:13;62388.41;;;-142.69;100.00
4199;BME280;2113;50.946;14.610;2024-03-02T06:07:41;62388.41;;;-142.69;100.00
4199;BME280;2113;50.946;14.610;2024-03-02T06:10:10;62388.41;;;-142.69;100.00
4199;BME280;2113;50.946;14.610;2024-03-02T06:12:41;62388.41;;;-142.69;100.00
4199;BME280;2113;50.946;14.610;2024-03-02T06:15:09;62388.41;;;-142.69;100.00
4199;BME280;2113;50.946;14.610;2024-03-02T06:17:39;62388.41;;;-142.69;100.00
4199;BME280;2113;50.946;14.610;2024-03-02T06:20:08;62388.41;;;-142.69;100.00
4199;BME280;2113;50.946;14.610;2024-03-02T06:22:36;62388.41;;;-142.69;100.00
4199;BME280;2113;50.946;14.610;2024-03-02T06:25:06;62388.41;;;-142.69;100.00
4199;BME280;2113;50.946;14.610;2024-03-02T06:27:34;62388.41;;;-142.69;100.00
4199;BME280;2113;50.946;14.610;2024-03-02T06:30:03;62388.41;;;-142.69;100.00
4199;BME280;2113;50.946;14.610;2024-03-02T06:32:32;62388.41;;;-142.69;100.00
4199;BME280;2113;50.946;14.610;2024-03-02T06:35:01;62388.41;;;-142.69;100.00
4199;BME280;2113;50.946;14.610;2024-03-02T06:37:31;62388.41;;;-142.69;100.00
4199;BME280;2113;50.946;14.610;2024-03-02T06:39:59;62388.41;;;-142.69;100.00
4199;BME280;2113;50.946;14.610;2024-03-02T06:42:27;62388.41;;;-142.69;100.00
4199;BME280;2113;50.946;14.610;2024-03-02T06:45:00;62388.41;;;-142.69;100.00
4199;BME280;2113;50.946;14.610;2024-03-02T06:47:28;62388.41;;;-142.69;100.00
4199;BME280;2113;50.946;14.610;2024-03-02T06:49:57;62388.41;;;-142.69;100.00
4199;BME280;2113;50.946;14.610;2024-03-02T06:52:27;62388.41;;;-142.69;100.00
4199;BME280;2113;50.946;14.610;2024-03-02T06:54:55;62388.41;;;-142.69;100.00
4199;BME280;2113;50.946;14.610;2024-03-02T06:57:23;62388.41;;;-142.69;100.00
4199;BME280;2113;50.946;14.610;2024-03-02T06:59:51;62388.41;;;-142.69;100.00
4199;BME280;2113;50.946;14.610;2024-03-02T07:02:21;62388.41;;;-142.69;100.00
4199;BME280;2113;50.946;14.610;2024-03-02T07:04:49;62388.41;;;-142.69;100.00
4199;BME280;2113;50.946;14.610;2024-03-02T07:07:18;62388.41;;;-142.69;100.00
4199;BME280;2113;50.946;14.610;2024-03-02T07:09:47;62388.41;;;-142.69;100.00
4199;BME280;2113;50.946;14.610;2024-03-02T07:12:16;62388.41;;;-142.69;100.00
4199;BME280;2113;50.946;14.610;2024-03-02T07:14:44;62388.41;;;-142.69;100.00
4199;BME280;2113;50.946;14.610;2024-03-02T07:17:31;62388.41;;;-142.69;100.00
4199;BME280;2113;50.946;14.610;2024-03-02T07:19:59;62388.41;;;-142.69;100.00
4199;BME280;2113;50.946;14.610;2024-03-02T07:22:28;62388.41;;;-142.69;100.00
4199;BME280;2113;50.946;14.610;2024-03-02T07:24:57;62388.41;;;-142.69;100.00
4199;BME280;2113;50.946;14.610;2024-03-02T07:27:25;62388.41;;;-142.69;100.00
4199;BME280;2113;50.946;14.610;2024-03-02T07:29:54;62388.41;;;-142.69;100.00
4199;BME280;2113;50.946;14.610;2024-03-02T07:32:22;62388.41;;;-142.69;100.00
4199;BME280;2113;50.946;14.610;2024-03-02T07:34:50;62388.41;;;-142.69;100.00
4199;BME280;2113;50.946;14.610;2024-03-02T07:37:20;62388.41;;;-142.69;100.00
4199;BME280;2113;50.946;14.610;2024-03-02T07:39:48;62388.41;;;-142.69;100.00
4199;BME280;2113;50.946;14.610;2024-03-02T07:42:17;62388.41;;;-142.69;100.00
4199;BME280;2113;50.946;14.610;2024-03-02T07:44:46;62388.41;;;-142.69;100.00
4199;BME280;2113;50.946;14.610;2024-03-02T07:47:14;62388.41;;;-142.69;100.00
4199;BME280;2113;50.946;14.610;2024-03-02T07:49:42;62388.41;;;-142.69;100.00
4199;BME280;2113;50.946;14.610;2024-03-02T07:52:12;62388.41;;;-142.69;100.00
4199;BME280;2113;50.946;14.610;2024-03-02T07:54:40;62388.41;;;-142.69;100.00
4199;BME280;2113;50.946;14.610;2024-03-02T07:57:08;62388.41;;;-142.69;100.00
4199;BME280;2113;50.946;14.610;2024-03-02T07:59:38;62388.41;;;-142.69;100.00
4199;BME280;2113;50.946;14.610;2024-03-02T08:02:07;62388.41;;;-142.69;100.00
4199;BME280;2113;50.946;14.610;2024-03-02T08:04:35;62388.41;;;-142.69;100.00
4199;BME280;2113;50.946;14.610;2024-03-02T08:07:04;62388.41;;;-142.69;100.00
4199;BME280;2113;50.946;14.610;2024-03-02T08:09:32;62388.41;;;-142.69;100.00
4199;BME280;2113;50.946;14.610;2024-03-02T08:12:02;62388.41;;;-142.69;100.00
4199;BME280;2113;50.946;14.610;2024-03-02T08:14:30;62388.41;;;-142.69;100.00
4199;BME280;2113;50.946;14.610;2024-03-02T08:16:59;62388.41;;;-142.69;100.00
4199;BME280;2113;50.946;14.610;2024-03-02T08:19:28;62388.41;;;-142.69;100.00
4199;BME280;2113;50.946;14.610;2024-03-02T08:21:57;62388.41;;;-142.69;100.00
4199;BME280;2113;50.946;14.610;2024-03-02T08:24:26;62388.41;;;-142.69;100.00
4199;BME280;2113;50.946;14.610;2024-03-02T08:26:54;62388.41;;;-142.69;100.00
4199;BME280;2113;50.946;14.610;2024-03-02T08:29:23;62388.41;;;-142.69;100.00
4199;BME280;2113;50.946;14.610;2024-03-02T08:31:52;62388.41;;;-142.69;100.00
4199;BME280;2113;50.946;14.610;2024-03-02T08:34:21;62388.41;;;-142.69;100.00
4199;BME280;2113;50.946;14.610;2024-03-02T08:36:50;62388.41;;;-142.69;100.00
4199;BME280;2113;50.946;14.610;2024-03-02T08:39:18;62388.41;;;-142.69;100.00
4199;BME280;2113;50.946;14.610;2024-03-02T08:41:48;62388.41;;;-142.69;100.00
4199;BME280;2113;50.946;14.610;2024-03-02T08:44:16;62388.41;;;-142.69;100.00
4199;BME280;2113;50.946;14.610;2024-03-02T08:46:45;62388.41;;;-142.69;100.00
4199;BME280;2113;50.946;14.610;2024-03-02T08:49:13;62388.41;;;-142.69;100.00
4199;BME280;2113;50.946;14.610;2024-03-02T08:51:43;62388.41;;;-142.69;100.00
4199;BME280;2113;50.946;14.610;2024-03-02T08:54:23;62388.41;;;-142.69;100.00
4199;BME280;2113;50.946;14.610;2024-03-02T08:56:51;62388.41;;;-142.69;100.00
4199;BME280;2113;50.946;14.610;2024-03-02T08:59:19;62388.41;;;-142.69;100.00
4199;BME280;2113;50.946;14.610;2024-03-02T09:01:47;62388.41;;;-142.69;100.00
4199;BME280;2113;50.946;14.610;2024-03-02T09:04:16;62388.41;;;-142.69;100.00
4199;BME280;2113;50.946;14.610;2024-03-02T09:06:45;62388.41;;;-142.69;100.00
4199;BME280;2113;50.946;14.610;2024-03-02T09:09:13;62388.41;;;-142.69;100.00
4199;BME280;2113;50.946;14.610;2024-03-02T09:11:41;62388.41;;;-142.69;100.00
4199;BME280;2113;50.946;14.610;2024-03-02T09:14:09;62388.41;;;-142.69;100.00
4199;BME280;2113;50.946;14.610;2024-03-02T09:16:42;62388.41;;;-142.69;100.00
4199;BME280;2113;50.946;14.610;2024-03-02T09:19:10;62388.41;;;-142.69;100.00
4199;BME280;2113;50.946;14.610;2024-03-02T09:21:38;62388.41;;;-142.69;100.00
4199;BME280;2113;50.946;14.610;2024-03-02T09:24:08;62388.41;;;-142.69;100.00
4199;BME280;2113;50.946;14.610;2024-03-02T09:26:36;62388.41;;;-142.69;100.00
4199;BME280;2113;50.946;14.610;2024-03-02T09:29:04;62388.41;;;-142.69;100.00
4199;BME280;2113;50.946;14.610;2024-03-02T09:31:33;62388.41;;;-142.69;100.00
4199;BME280;2113;50.946;14.610;2024-03-02T09:34:01;62388.41;;;-142.69;100.00
4199;BME280;2113;50.946;14.610;2024-03-02T09:36:29;62388.41;;;-142.69;100.00
4199;BME280;2113;50.946;14.610;2024-03-02T09:38:58;62388.41;;;-142.69;100.00
4199;BME280;2113;50.946;14.610;2024-03-02T09:41:27;62388.41;;;-142.69;100.00
4199;BME280;2113;50.946;14.610;2024-03-02T09:43:55;62388.41;;;-142.69;100.00
4199;BME280;2113;50.946;14.610;2024-03-02T09:46:25;62388.41;;;-142.69;100.00
4199;BME280;2113;50.946;14.610;2024-03-02T09:48:53;62388.41;;;-142.69;100.00
4199;BME280;2113;50.946;14.610;2024-03-02T09:51:22;62388.41;;;-142.69;100.00
4199;BME280;2113;50.946;14.610;2024-03-02T09:53:50;62388.41;;;-142.69;100.00
4199;BME280;2113;50.946;14.610;2024-03-02T09:56:22;62388.41;;;-142.69;100.00
4199;BME280;2113;50.946;14.610;2024-03-02T09:58:51;62388.41;;;-142.69;100.00
4199;BME280;2113;50.946;14.610;2024-03-02T10:01:19;62388.41;;;-142.69;100.00
4199;BME280;2113;50.946;14.610;2024-03-02T10:03:48;62388.41;;;-142.69;100.00
4199;BME280;2113;50.946;14.610;2024-03-02T10:06:21;62388.41;;;-142.69;100.00
4199;BME280;2113;50.946;14.610;2024-03-02T10:08:50;62388.41;;;-142.69;100.00
4199;BME280;2113;50.946;14.610;2024-03-02T10:11:28;62388.41;;;-142.69;100.00
4199;BME280;2113;50.946;14.610;2024-03-02T10:14:07;62388.41;;;-142.69;100.00
4199;BME280;2113;50.946;14.610;2024-03-02T10:16:38;62388.41;;;-142.69;100.00
4199;BME280;2113;50.946;14.610;2024-03-02T10:19:16;62388.41;;;-142.69;100.00
4199;BME280;2113;50.946;14.610;2024-03-02T10:21:45;62388.41;;;-142.69;100.00
4199;BME280;2113;50.946;14.610;2024-03-02T10:24:14;62388.41;;;-142.69;100.00
4199;BME280;2113;50.946;14.610;2024-03-02T10:26:42;62388.41;;;-142.69;100.00
4199;BME280;2113;50.946;14.610;2024-03-02T10:29:12;62388.41;;;-142.69;100.00
4199;BME280;2113;50.946;14.610;2024-03-02T10:31:43;62388.41;;;-142.69;100.00
4199;BME280;2113;50.946;14.610;2024-03-02T10:34:13;62388.41;;;-142.69;100.00
4199;BME280;2113;50.946;14.610;2024-03-02T10:36:44;62388.41;;;-142.69;100.00
4199;BME280;2113;50.946;14.610;2024-03-02T10:39:14;62388.41;;;-142.69;100.00
4199;BME280;2113;50.946;14.610;2024-03-02T10:41:43;62388.41;;;-142.69;100.00
4199;BME280;2113;50.946;14.610;2024-03-02T10:44:14;62388.41;;;-142.69;100.00
4199;BME280;2113;50.946;14.610;2024-03-02T10:46:45;62388.41;;;-142.69;100.00
4199;BME280;2113;50.946;14.610;2024-03-02T10:49:14;62388.41;;;-142.69;100.00
4199;BME280;2113;50.946;14.610;2024-03-02T10:51:42;62388.41;;;-142.69;100.00
4199;BME280;2113;50.946;14.610;2024-03-02T10:54:10;62388.41;;;-142.69;100.00
4199;BME280;2113;50.946;14.610;2024-03-02T10:56:39;62388.41;;;-142.69;100.00
4199;BME280;2113;50.946;14.610;2024-03-02T10:59:19;62388.41;;;-142.69;100.00
4199;BME280;2113;50.946;14.610;2024-03-02T11:01:53;62388.41;;;-142.69;100.00
4199;BME280;2113;50.946;14.610;2024-03-02T11:04:26;62388.41;;;-142.69;100.00
4199;BME280;2113;50.946;14.610;2024-03-02T11:07:00;62388.41;;;-142.69;100.00
4199;BME280;2113;50.946;14.610;2024-03-02T11:09:29;62388.41;;;-142.69;100.00
4199;BME280;2113;50.946;14.610;2024-03-02T11:12:03;62388.41;;;-142.69;100.00
4199;BME280;2113;50.946;14.610;2024-03-02T11:14:34;62388.41;;;-142.69;100.00
4199;BME280;2113;50.946;14.610;2024-03-02T11:17:06;62388.41;;;-142.69;100.00
4199;BME280;2113;50.946;14.610;2024-03-02T11:19:35;62388.41;;;-142.69;100.00
4199;BME280;2113;50.946;14.610;2024-03-02T11:22:06;62388.41;;;-142.69;100.00
4199;BME280;2113;50.946;14.610;2024-03-02T11:24:35;62388.41;;;-142.69;100.00
4199;BME280;2113;50.946;14.610;2024-03-02T11:27:05;62388.41;;;-142.69;100.00
4199;BME280;2113;50.946;14.610;2024-03-02T11:29:45;62388.41;;;-142.69;100.00
4199;BME280;2113;50.946;14.610;2024-03-02T11:32:20;62388.41;;;-142.69;100.00
4199;BME280;2113;50.946;14.610;2024-03-02T11:34:49;62388.41;;;-142.69;100.00
4199;BME280;2113;50.946;14.610;2024-03-02T11:37:18;62388.41;;;-142.69;100.00
4199;BME280;2113;50.946;14.610;2024-03-02T11:39:49;62388.41;;;-142.69;100.00
4199;BME280;2113;50.946;14.610;2024-03-02T11:42:17;62388.41;;;-142.69;100.00
4199;BME280;2113;50.946;14.610;2024-03-02T11:44:48;62388.41;;;-142.69;100.00
4199;BME280;2113;50.946;14.610;2024-03-02T11:47:17;62388.41;;;-142.69;100.00
4199;BME280;2113;50.946;14.610;2024-03-02T11:49:46;62388.41;;;-142.69;100.00
4199;BME280;2113;50.946;14.610;2024-03-02T11:52:17;62388.41;;;-142.69;100.00
4199;BME280;2113;50.946;14.610;2024-03-02T11:54:47;62388.41;;;-142.69;100.00
4199;BME280;2113;50.946;14.610;2024-03-02T11:57:17;62388.41;;;-142.69;100.00
4199;BME280;2113;50.946;14.610;2024-03-02T11:59:48;62388.41;;;-142.69;100.00
4199;BME280;2113;50.946;14.610;2024-03-02T12:02:18;62388.41;;;-142.69;100.00
4199;BME280;2113;50.946;14.610;2024-03-02T12:04:49;62388.41;;;-142.69;100.00
4199;BME280;2113;50.946;14.610;2024-03-02T12:07:18;62388.41;;;-142.69;100.00
4199;BME280;2113;50.946;14.610;2024-03-02T12:10:25;62388.41;;;-142.69;100.00
4199;BME280;2113;50.946;14.610;2024-03-02T12:12:57;62388.41;;;-142.69;100.00
4199;BME280;2113;50.946;14.610;2024-03-02T12:15:28;62388.41;;;-142.69;100.00
4199;BME280;2113;50.946;14.610;2024-03-02T12:17:57;62388.41;;;-142.69;100.00
4199;BME280;2113;50.946;14.610;2024-03-02T12:20:28;62388.41;;;-142.69;100.00
4199;BME280;2113;50.946;14.610;2024-03-02T12:22:59;62388.41;;;-142.69;100.00
4199;BME280;2113;50.946;14.610;2024-03-02T12:25:30;62388.41;;;-142.69;100.00
4199;BME280;2113;50.946;14.610;2024-03-02T12:28:00;62388.41;;;-142.69;100.00
4199;BME280;2113;50.946;14.610;2024-03-02T12:30:35;62388.41;;;-142.69;100.00
4199;BME280;2113;50.946;14.610;2024-03-02T12:33:04;62388.41;;;-142.69;100.00
4199;BME280;2113;50.946;14.610;2024-03-02T12:35:33;62388.41;;;-142.69;100.00
4199;BME280;2113;50.946;14.610;2024-03-02T12:38:01;62388.41;;;-142.69;100.00
4199;BME280;2113;50.946;14.610;2024-03-02T12:40:30;62388.41;;;-142.69;100.00
4199;BME280;2113;50.946;14.610;2024-03-02T12:42:59;62388.41;;;-142.69;100.00
4199;BME280;2113;50.946;14.610;2024-03-02T12:45:27;62388.41;;;-142.69;100.00
4199;BME280;2113;50.946;14.610;2024-03-02T12:47:57;62388.41;;;-142.69;100.00
4199;BME280;2113;50.946;14.610;2024-03-02T12:50:28;62388.41;;;-142.69;100.00
4199;BME280;2113;50.946;14.610;2024-03-02T12:52:56;62388.41;;;-142.69;100.00
4199;BME280;2113;50.946;14.610;2024-03-02T12:55:24;62388.41;;;-142.69;100.00